createdAt,value
2017-03-12T00:00:20.109Z,7.4
2017-03-12T00:01:02.363Z,7.39
2017-03-12T00:01:44.916Z,7.49
2017-03-12T00:03:39.887Z,7.52
2017-03-12T00:04:22.183Z,7.48
2017-03-12T00:05:04.618Z,7.58
2017-03-12T00:07:05.334Z,7.68
2017-03-12T00:07:47.554Z,7.64
2017-03-12T00:08:29.627Z,7.69
2017-03-12T00:09:12.326Z,7.63
2017-03-12T00:09:55.031Z,7.72
2017-03-12T00:12:11.086Z,7.74
2017-03-12T00:12:53.549Z,7.77
2017-03-12T00:13:36.328Z,7.82
2017-03-12T00:15:37.456Z,7.86
2017-03-12T00:16:20.087Z,7.8
2017-03-12T00:17:02.444Z,7.9
2017-03-12T00:17:45.282Z,7.79
2017-03-12T00:18:27.769Z,7.85
2017-03-12T00:19:10.093Z,7.92
2017-03-12T00:19:52.891Z,7.87
2017-03-12T00:20:35.111Z,7.85
2017-03-12T00:21:17.940Z,7.92
2017-03-12T00:22:00.381Z,7.95
2017-03-12T00:22:43.133Z,7.95
2017-03-12T00:23:25.913Z,7.9
2017-03-12T00:24:07.985Z,7.98
2017-03-12T00:24:50.544Z,7.92
2017-03-12T00:25:33.332Z,7.9
2017-03-12T00:26:16.017Z,7.9
2017-03-12T00:26:58.426Z,7.93
2017-03-12T00:27:40.973Z,7.89
2017-03-12T00:29:30.595Z,8.05
2017-03-12T00:31:25.838Z,7.92
2017-03-12T00:32:07.944Z,7.95
2017-03-12T00:32:51.391Z,7.89
2017-03-12T00:33:34.142Z,7.9
2017-03-12T00:34:16.712Z,7.97
2017-03-12T00:34:59.654Z,7.95
2017-03-12T00:35:42.052Z,7.87
2017-03-12T00:36:24.709Z,7.95
2017-03-12T00:37:07.179Z,7.93
2017-03-12T00:37:50.057Z,7.87
2017-03-12T00:38:32.240Z,8
2017-03-12T00:40:27.578Z,8
2017-03-12T00:41:10.120Z,7.97
2017-03-12T00:41:52.963Z,7.97
2017-03-12T00:42:35.491Z,7.9
2017-03-12T00:44:51.854Z,7.86
2017-03-12T00:45:34.062Z,7.9
2017-03-12T00:47:28.961Z,7.9
2017-03-12T00:48:11.161Z,7.79
2017-03-12T00:48:53.469Z,7.95
2017-03-12T00:49:35.881Z,7.95
2017-03-12T00:50:18.555Z,7.86
2017-03-12T00:51:00.829Z,7.92
2017-03-12T00:51:43.465Z,7.83
2017-03-12T00:52:26.035Z,7.95
2017-03-12T00:53:08.092Z,7.87
2017-03-12T00:53:50.150Z,7.87
2017-03-12T00:54:32.126Z,7.87
2017-03-12T00:55:14.653Z,7.75
2017-03-12T00:55:56.815Z,7.92
2017-03-12T00:56:39.306Z,7.89
2017-03-12T00:57:21.521Z,7.9
2017-03-12T00:58:04.372Z,7.82
2017-03-12T00:58:47.149Z,7.8
2017-03-12T00:59:29.229Z,7.86
2017-03-12T01:00:12.204Z,7.83
2017-03-12T01:00:54.559Z,7.87
2017-03-12T01:01:36.900Z,7.82
2017-03-12T01:02:19.068Z,7.8
2017-03-12T01:03:01.397Z,7.85
2017-03-12T01:03:43.930Z,7.8
2017-03-12T01:04:26.451Z,7.82
2017-03-12T01:05:09.355Z,7.79
2017-03-12T01:05:52.114Z,7.83
2017-03-12T01:06:34.742Z,7.77
2017-03-12T01:07:17.048Z,7.77
2017-03-12T01:09:06.867Z,7.68
2017-03-12T01:09:49.563Z,7.69
2017-03-12T01:10:32.282Z,7.71
2017-03-12T01:11:14.954Z,7.68
2017-03-12T01:11:57.590Z,7.69
2017-03-12T01:12:40.140Z,7.64
2017-03-12T01:13:23.228Z,7.63
2017-03-12T01:14:05.778Z,7.58
2017-03-12T01:14:48.715Z,7.61
2017-03-12T01:15:30.269Z,7.53
2017-03-12T01:17:25.242Z,7.52
2017-03-12T01:18:07.839Z,7.6
2017-03-12T01:20:03.013Z,7.53
2017-03-12T01:20:45.532Z,7.49
2017-03-12T01:21:28.076Z,7.45
2017-03-12T01:23:23.057Z,7.42
2017-03-12T01:24:05.547Z,7.32
2017-03-12T01:24:48.258Z,7.37
2017-03-12T01:27:04.612Z,7.32
2017-03-12T01:27:47.165Z,7.23
2017-03-12T01:28:29.663Z,7.24
2017-03-12T01:29:12.222Z,7.21
2017-03-12T01:29:55.110Z,7.2
2017-03-12T01:30:37.264Z,7.24
2017-03-12T01:31:20.119Z,7.2
2017-03-12T01:32:02.878Z,7.2
2017-03-12T01:32:45.280Z,7.15
2017-03-12T01:33:27.790Z,7.21
2017-03-12T01:34:09.880Z,7.2
2017-03-12T01:34:51.914Z,7.13
2017-03-12T01:36:46.903Z,7.15
2017-03-12T01:37:29.614Z,7.16
2017-03-12T01:38:11.615Z,7.15
2017-03-12T01:38:54.374Z,7.16
2017-03-12T01:39:36.693Z,7.09
2017-03-12T01:41:26.201Z,7.21
2017-03-12T01:42:08.511Z,7.12
2017-03-12T01:42:50.635Z,7.06
2017-03-12T01:43:32.245Z,7.13
2017-03-12T01:44:14.831Z,7.1
2017-03-12T01:46:10.143Z,6.97
2017-03-12T01:46:52.626Z,6.95
2017-03-12T01:48:53.516Z,6.97
2017-03-12T01:49:36.102Z,6.81
2017-03-12T01:50:18.331Z,6.79
2017-03-12T01:51:01.195Z,6.79
2017-03-12T01:51:43.630Z,6.81
2017-03-12T01:53:33.426Z,6.73
2017-03-12T01:54:16.251Z,6.73
2017-03-12T01:54:58.428Z,6.73
2017-03-12T01:55:41.175Z,6.67
2017-03-12T01:56:23.723Z,6.77
2017-03-12T01:57:06.391Z,6.59
2017-03-12T01:57:48.820Z,6.64
2017-03-12T01:59:49.209Z,6.55
2017-03-12T02:00:29.735Z,6.54
2017-03-12T02:01:10.258Z,6.49
2017-03-12T02:01:50.805Z,6.49
2017-03-12T02:02:31.339Z,6.46
2017-03-12T02:03:11.870Z,6.38
2017-03-12T02:03:52.396Z,6.41
2017-03-12T02:04:32.922Z,6.43
2017-03-12T02:05:13.449Z,6.43
2017-03-12T02:05:53.972Z,6.36
2017-03-12T02:06:34.510Z,6.36
2017-03-12T02:07:15.041Z,6.33
2017-03-12T02:07:55.573Z,6.41
2017-03-12T02:08:36.116Z,6.3
2017-03-12T02:09:16.642Z,6.33
2017-03-12T02:09:57.176Z,6.3
2017-03-12T02:10:37.708Z,6.28
2017-03-12T02:11:18.248Z,6.3
2017-03-12T02:11:58.784Z,6.27
2017-03-12T02:12:39.310Z,6.3
2017-03-12T02:13:19.845Z,6.28
2017-03-12T02:14:00.374Z,6.33
2017-03-12T02:14:40.908Z,6.31
2017-03-12T02:15:21.446Z,6.22
2017-03-12T02:16:01.978Z,6.28
2017-03-12T02:16:42.499Z,6.25
2017-03-12T02:17:23.045Z,6.21
2017-03-12T02:18:03.582Z,6.25
2017-03-12T02:18:44.120Z,6.27
2017-03-12T02:19:24.652Z,6.21
2017-03-12T02:20:05.173Z,6.27
2017-03-12T02:20:45.728Z,6.3
2017-03-12T02:21:26.246Z,6.21
2017-03-12T02:22:06.780Z,6.3
2017-03-12T02:22:47.308Z,6.19
2017-03-12T02:23:27.842Z,6.21
2017-03-12T02:24:08.369Z,6.22
2017-03-12T02:24:48.904Z,6.31
2017-03-12T02:25:29.429Z,6.22
2017-03-12T02:26:09.965Z,6.3
2017-03-12T02:26:50.500Z,6.21
2017-03-12T02:27:31.023Z,6.28
2017-03-12T02:28:11.549Z,6.19
2017-03-12T02:28:52.084Z,6.34
2017-03-12T02:29:32.617Z,6.19
2017-03-12T02:30:13.147Z,6.27
2017-03-12T02:30:53.681Z,6.18
2017-03-12T02:31:34.205Z,6.3
2017-03-12T02:32:14.744Z,6.28
2017-03-12T02:32:55.274Z,6.33
2017-03-12T02:33:35.807Z,6.25
2017-03-12T02:34:16.339Z,6.27
2017-03-12T02:34:56.878Z,6.31
2017-03-12T02:35:37.412Z,6.3
2017-03-12T02:36:17.932Z,6.28
2017-03-12T02:36:58.464Z,6.28
2017-03-12T02:37:38.992Z,6.21
2017-03-12T02:38:19.514Z,6.28
2017-03-12T02:39:00.047Z,6.22
2017-03-12T02:39:40.585Z,6.3
2017-03-12T02:40:21.116Z,6.27
2017-03-12T02:41:01.644Z,6.3
2017-03-12T02:41:42.170Z,6.34
2017-03-12T02:42:22.710Z,6.21
2017-03-12T02:43:03.244Z,6.27
2017-03-12T02:43:43.777Z,6.27
2017-03-12T02:44:24.333Z,6.3
2017-03-12T02:45:04.867Z,6.27
2017-03-12T02:45:45.387Z,6.28
2017-03-12T02:46:25.917Z,6.31
2017-03-12T02:47:06.450Z,6.28
2017-03-12T02:47:46.986Z,6.21
2017-03-12T02:48:27.515Z,6.22
2017-03-12T02:49:08.048Z,6.31
2017-03-12T02:49:48.577Z,6.27
2017-03-12T02:50:29.115Z,6.27
2017-03-12T02:51:09.646Z,6.3
2017-03-12T02:51:50.179Z,6.3
2017-03-12T02:52:30.719Z,6.25
2017-03-12T02:53:11.251Z,6.3
2017-03-12T02:53:51.774Z,6.28
2017-03-12T02:54:32.306Z,6.31
2017-03-12T02:55:12.845Z,6.21
2017-03-12T02:55:53.382Z,6.28
2017-03-12T02:56:33.922Z,6.28
2017-03-12T02:57:14.437Z,6.25
2017-03-12T02:57:54.974Z,6.3
2017-03-12T02:58:35.496Z,6.19
2017-03-12T02:59:16.031Z,6.18
2017-03-12T02:59:56.560Z,6.21
2017-03-12T03:00:37.088Z,6.21
2017-03-12T03:01:17.628Z,6.19
2017-03-12T03:01:58.153Z,6.27
2017-03-12T03:02:38.688Z,6.09
2017-03-12T03:03:19.227Z,6.21
2017-03-12T03:03:59.764Z,6.17
2017-03-12T03:04:40.301Z,6.15
2017-03-12T03:05:20.831Z,6.19
2017-03-12T03:06:01.364Z,6.11
2017-03-12T03:06:41.891Z,6.14
2017-03-12T03:07:22.433Z,6.11
2017-03-12T03:08:02.975Z,6.14
2017-03-12T03:08:43.498Z,6.06
2017-03-12T03:09:24.025Z,6.08
2017-03-12T03:10:04.564Z,6
2017-03-12T03:10:45.115Z,6
2017-03-12T03:11:25.646Z,6.06
2017-03-12T03:12:06.185Z,6.03
2017-03-12T03:12:46.725Z,6.01
2017-03-12T03:13:27.248Z,6
2017-03-12T03:14:07.786Z,5.99
2017-03-12T03:14:48.305Z,5.94
2017-03-12T03:15:28.841Z,5.99
2017-03-12T03:16:09.377Z,5.94
2017-03-12T03:16:49.904Z,5.94
2017-03-12T03:17:30.440Z,5.91
2017-03-12T03:18:10.968Z,5.9
2017-03-12T03:18:51.498Z,5.82
2017-03-12T03:19:32.036Z,5.81
2017-03-12T03:20:12.572Z,5.78
2017-03-12T03:20:53.102Z,5.75
2017-03-12T03:21:33.633Z,5.78
2017-03-12T03:22:14.162Z,5.79
2017-03-12T03:22:54.695Z,5.72
2017-03-12T03:23:35.231Z,5.74
2017-03-12T03:24:15.762Z,5.75
2017-03-12T03:24:56.293Z,5.75
2017-03-12T03:25:36.824Z,5.72
2017-03-12T03:26:17.362Z,5.71
2017-03-12T03:26:57.897Z,5.68
2017-03-12T03:27:38.435Z,5.6
2017-03-12T03:28:18.953Z,5.65
2017-03-12T03:28:59.493Z,5.75
2017-03-12T03:29:40.019Z,5.64
2017-03-12T03:30:20.542Z,5.64
2017-03-12T03:31:01.074Z,5.58
2017-03-12T03:31:41.608Z,5.6
2017-03-12T03:32:22.161Z,5.63
2017-03-12T03:33:02.692Z,5.63
2017-03-12T03:33:43.228Z,5.63
2017-03-12T03:34:23.768Z,5.65
2017-03-12T03:35:04.302Z,5.64
2017-03-12T03:35:44.831Z,5.56
2017-03-12T03:36:25.356Z,5.58
2017-03-12T03:37:05.886Z,5.53
2017-03-12T03:37:46.435Z,5.51
2017-03-12T03:38:26.964Z,5.63
2017-03-12T03:39:07.504Z,5.54
2017-03-12T03:39:48.023Z,5.48
2017-03-12T03:40:28.588Z,5.57
2017-03-12T03:41:09.085Z,5.57
2017-03-12T03:41:49.650Z,5.51
2017-03-12T03:42:30.153Z,5.46
2017-03-12T03:43:10.683Z,5.42
2017-03-12T03:43:51.216Z,5.46
2017-03-12T03:44:31.755Z,5.45
2017-03-12T03:45:12.281Z,5.45
2017-03-12T03:45:52.818Z,5.38
2017-03-12T03:46:33.357Z,5.4
2017-03-12T03:47:13.889Z,5.38
2017-03-12T03:47:54.423Z,5.39
2017-03-12T03:48:34.942Z,5.43
2017-03-12T03:49:15.483Z,5.38
2017-03-12T03:49:56.012Z,5.42
2017-03-12T03:50:36.543Z,5.28
2017-03-12T03:51:17.060Z,5.39
2017-03-12T03:51:57.591Z,5.36
2017-03-12T03:52:38.121Z,5.31
2017-03-12T03:53:18.650Z,5.35
2017-03-12T03:53:59.177Z,5.38
2017-03-12T03:54:39.707Z,5.28
2017-03-12T03:55:20.242Z,5.39
2017-03-12T03:56:00.769Z,5.31
2017-03-12T03:56:41.298Z,5.31
2017-03-12T03:57:21.832Z,5.35
2017-03-12T03:58:02.362Z,5.21
2017-03-12T03:58:42.888Z,5.22
2017-03-12T03:59:23.422Z,5.28
2017-03-12T04:00:03.952Z,5.3
2017-03-12T04:00:44.479Z,5.22
2017-03-12T04:01:25.009Z,5.25
2017-03-12T04:02:05.546Z,5.22
2017-03-12T04:02:46.073Z,5.24
2017-03-12T04:03:26.599Z,5.2
2017-03-12T04:04:07.130Z,5.21
2017-03-12T04:04:47.649Z,5.22
2017-03-12T04:05:28.200Z,5.22
2017-03-12T04:06:08.740Z,5.15
2017-03-12T04:06:49.272Z,5.2
2017-03-12T04:07:29.800Z,5.21
2017-03-12T04:08:10.335Z,5.15
2017-03-12T04:08:50.861Z,5.15
2017-03-12T04:09:31.393Z,5.17
2017-03-12T04:10:11.924Z,5.21
2017-03-12T04:10:52.451Z,5.09
2017-03-12T04:11:32.980Z,5.2
2017-03-12T04:12:13.500Z,5.12
2017-03-12T04:12:54.028Z,5.1
2017-03-12T04:13:34.558Z,5.17
2017-03-12T04:14:15.088Z,5.21
2017-03-12T04:14:55.695Z,5.15
2017-03-12T04:15:36.224Z,5.09
2017-03-12T04:16:16.763Z,5.1
2017-03-12T04:16:57.293Z,5.21
2017-03-12T04:17:37.829Z,5.1
2017-03-12T04:18:18.361Z,5.1
2017-03-12T04:18:58.900Z,5.13
2017-03-12T04:19:39.432Z,5.17
2017-03-12T04:20:19.969Z,5.15
2017-03-12T04:21:00.493Z,5.13
2017-03-12T04:21:41.028Z,5.15
2017-03-12T04:22:21.560Z,5.12
2017-03-12T04:23:02.093Z,5.13
2017-03-12T04:23:42.631Z,5.18
2017-03-12T04:24:23.168Z,5.09
2017-03-12T04:25:03.689Z,5.04
2017-03-12T04:25:44.216Z,5.13
2017-03-12T04:26:24.758Z,5.07
2017-03-12T04:27:05.294Z,5.12
2017-03-12T04:27:45.830Z,5.04
2017-03-12T04:28:26.362Z,5.1
2017-03-12T04:29:06.889Z,5.04
2017-03-12T04:29:47.428Z,5.13
2017-03-12T04:30:27.985Z,5.07
2017-03-12T04:31:08.496Z,5.09
2017-03-12T04:31:49.034Z,5.04
2017-03-12T04:32:29.569Z,5.07
2017-03-12T04:33:10.106Z,5.04
2017-03-12T04:33:50.633Z,5.04
2017-03-12T04:34:31.161Z,5.02
2017-03-12T04:35:11.697Z,5.04
2017-03-12T04:35:52.229Z,5.04
2017-03-12T04:36:32.760Z,5.04
2017-03-12T04:37:13.322Z,5.02
2017-03-12T04:37:53.850Z,5.02
2017-03-12T04:38:34.377Z,4.99
2017-03-12T04:39:14.912Z,4.94
2017-03-12T04:39:55.442Z,4.99
2017-03-12T04:40:35.981Z,4.96
2017-03-12T04:41:16.508Z,4.97
2017-03-12T04:41:57.037Z,4.94
2017-03-12T04:42:37.571Z,4.97
2017-03-12T04:43:18.105Z,4.91
2017-03-12T04:43:58.630Z,4.96
2017-03-12T04:44:39.157Z,4.92
2017-03-12T04:45:19.692Z,4.94
2017-03-12T04:46:00.224Z,4.89
2017-03-12T04:46:40.754Z,4.89
2017-03-12T04:47:21.295Z,4.91
2017-03-12T04:48:01.827Z,4.96
2017-03-12T04:48:42.361Z,4.92
2017-03-12T04:49:22.897Z,4.92
2017-03-12T04:50:03.430Z,4.91
2017-03-12T04:50:43.972Z,4.82
2017-03-12T04:51:24.501Z,4.8
2017-03-12T04:52:05.035Z,4.78
2017-03-12T04:52:45.550Z,4.82
2017-03-12T04:53:26.090Z,4.73
2017-03-12T04:54:06.621Z,4.85
2017-03-12T04:54:47.154Z,4.7
2017-03-12T04:55:27.679Z,4.77
2017-03-12T04:56:08.209Z,4.78
2017-03-12T04:56:48.760Z,4.72
2017-03-12T04:57:29.272Z,4.77
2017-03-12T04:58:09.801Z,4.8
2017-03-12T04:58:50.330Z,4.86
2017-03-12T04:59:30.863Z,4.82
2017-03-12T05:00:11.388Z,4.84
2017-03-12T05:00:51.924Z,4.78
2017-03-12T05:01:32.457Z,4.8
2017-03-12T05:02:12.976Z,4.77
2017-03-12T05:02:53.506Z,4.77
2017-03-12T05:03:34.038Z,4.72
2017-03-12T05:04:14.579Z,4.77
2017-03-12T05:04:55.110Z,4.8
2017-03-12T05:05:35.640Z,4.77
2017-03-12T05:06:16.166Z,4.75
2017-03-12T05:06:56.715Z,4.75
2017-03-12T05:07:37.221Z,4.75
2017-03-12T05:08:17.752Z,4.69
2017-03-12T05:08:58.285Z,4.69
2017-03-12T05:09:38.807Z,4.73
2017-03-12T05:10:19.343Z,4.72
2017-03-12T05:10:59.883Z,4.7
2017-03-12T05:11:40.415Z,4.67
2017-03-12T05:12:20.942Z,4.72
2017-03-12T05:13:01.471Z,4.67
2017-03-12T05:13:42.009Z,4.67
2017-03-12T05:14:22.537Z,4.69
2017-03-12T05:15:03.073Z,4.72
2017-03-12T05:15:43.597Z,4.67
2017-03-12T05:16:24.128Z,4.67
2017-03-12T05:17:04.662Z,4.69
2017-03-12T05:17:45.210Z,4.73
2017-03-12T05:18:25.735Z,4.66
2017-03-12T05:19:06.310Z,4.63
2017-03-12T05:19:46.844Z,4.72
2017-03-12T05:20:27.378Z,4.7
2017-03-12T05:21:07.910Z,4.72
2017-03-12T05:21:48.435Z,4.66
2017-03-12T05:22:28.963Z,4.69
2017-03-12T05:23:09.519Z,4.7
2017-03-12T05:23:50.044Z,4.67
2017-03-12T05:24:30.554Z,4.69
2017-03-12T05:25:11.078Z,4.67
2017-03-12T05:25:51.619Z,4.69
2017-03-12T05:26:32.148Z,4.66
2017-03-12T05:27:12.681Z,4.66
2017-03-12T05:27:53.214Z,4.67
2017-03-12T05:28:33.730Z,4.67
2017-03-12T05:29:14.258Z,4.7
2017-03-12T05:29:54.792Z,4.66
2017-03-12T05:30:35.324Z,4.69
2017-03-12T05:31:15.844Z,4.66
2017-03-12T05:31:56.386Z,4.62
2017-03-12T05:32:36.923Z,4.65
2017-03-12T05:33:17.455Z,4.67
2017-03-12T05:33:57.997Z,4.72
2017-03-12T05:34:38.527Z,4.63
2017-03-12T05:35:19.055Z,4.66
2017-03-12T05:35:59.585Z,4.66
2017-03-12T05:36:40.120Z,4.66
2017-03-12T05:37:20.660Z,4.65
2017-03-12T05:38:01.196Z,4.67
2017-03-12T05:38:41.730Z,4.66
2017-03-12T05:39:22.265Z,4.67
2017-03-12T05:40:02.794Z,4.72
2017-03-12T05:40:43.337Z,4.66
2017-03-12T05:41:23.862Z,4.66
2017-03-12T05:42:04.403Z,4.7
2017-03-12T05:42:44.938Z,4.69
2017-03-12T05:43:25.475Z,4.67
2017-03-12T05:44:05.996Z,4.65
2017-03-12T05:44:46.593Z,4.65
2017-03-12T05:45:27.133Z,4.69
2017-03-12T05:46:07.653Z,4.69
2017-03-12T05:46:48.191Z,4.6
2017-03-12T05:47:28.720Z,4.66
2017-03-12T05:48:09.257Z,4.72
2017-03-12T05:48:49.793Z,4.66
2017-03-12T05:49:30.329Z,4.66
2017-03-12T05:50:10.861Z,4.67
2017-03-12T05:50:51.408Z,4.58
2017-03-12T05:51:31.920Z,4.6
2017-03-12T05:52:12.461Z,4.66
2017-03-12T05:52:52.980Z,4.69
2017-03-12T05:53:33.504Z,4.66
2017-03-12T05:54:14.040Z,4.7
2017-03-12T05:54:54.572Z,4.69
2017-03-12T05:55:35.112Z,4.67
2017-03-12T05:56:15.644Z,4.72
2017-03-12T05:56:56.173Z,4.73
2017-03-12T05:57:36.703Z,4.72
2017-03-12T05:58:17.259Z,4.7
2017-03-12T05:58:57.797Z,4.75
2017-03-12T05:59:38.321Z,4.72
2017-03-12T06:00:18.842Z,4.75
2017-03-12T06:00:59.377Z,4.77
2017-03-12T06:01:39.904Z,4.75
2017-03-12T06:02:20.445Z,4.78
2017-03-12T06:03:00.966Z,4.77
2017-03-12T06:03:41.500Z,4.75
2017-03-12T06:04:22.032Z,4.85
2017-03-12T06:05:02.564Z,4.77
2017-03-12T06:05:43.094Z,4.82
2017-03-12T06:06:23.633Z,4.69
2017-03-12T06:07:04.169Z,4.82
2017-03-12T06:07:44.701Z,4.8
2017-03-12T06:08:25.234Z,4.73
2017-03-12T06:09:05.771Z,4.75
2017-03-12T06:09:46.305Z,4.78
2017-03-12T06:10:26.835Z,4.8
2017-03-12T06:11:07.377Z,4.88
2017-03-12T06:11:47.910Z,4.82
2017-03-12T06:12:28.461Z,4.91
2017-03-12T06:13:08.988Z,4.84
2017-03-12T06:13:49.519Z,4.92
2017-03-12T06:14:30.062Z,4.85
2017-03-12T06:15:10.590Z,4.85
2017-03-12T06:15:52.388Z,4.89
2017-03-12T06:16:36.021Z,4.85
2017-03-12T06:17:18.238Z,4.86
2017-03-12T06:18:02.031Z,4.85
2017-03-12T06:18:45.372Z,4.85
2017-03-12T06:19:28.246Z,4.89
2017-03-12T06:20:11.674Z,4.92
2017-03-12T06:20:55.074Z,4.89
2017-03-12T06:21:38.913Z,4.91
2017-03-12T06:22:21.849Z,4.89
2017-03-12T06:23:03.741Z,4.96
2017-03-12T06:23:44.270Z,4.96
2017-03-12T06:24:24.804Z,4.92
2017-03-12T06:25:05.334Z,4.94
2017-03-12T06:25:45.877Z,4.97
2017-03-12T06:26:26.406Z,4.92
2017-03-12T06:27:06.938Z,4.91
2017-03-12T06:27:47.518Z,5.03
2017-03-12T06:28:28.132Z,4.97
2017-03-12T06:29:08.726Z,5.04
2017-03-12T06:29:49.244Z,5
2017-03-12T06:30:29.772Z,5.07
2017-03-12T06:31:10.351Z,5.1
2017-03-12T06:31:50.816Z,5.07
2017-03-12T06:32:31.350Z,5.09
2017-03-12T06:33:11.879Z,5.1
2017-03-12T06:33:52.567Z,5.07
2017-03-12T06:34:33.103Z,5.18
2017-03-12T06:35:13.640Z,5.2
2017-03-12T06:35:54.174Z,5.2
2017-03-12T06:36:34.709Z,5.13
2017-03-12T06:37:15.239Z,5.13
2017-03-12T06:37:55.771Z,5.12
2017-03-12T06:38:36.534Z,5.21
2017-03-12T06:39:17.062Z,5.21
2017-03-12T06:39:57.595Z,5.22
2017-03-12T06:40:38.127Z,5.13
2017-03-12T06:41:18.672Z,5.25
2017-03-12T06:41:59.196Z,5.28
2017-03-12T06:42:39.730Z,5.28
2017-03-12T06:43:20.260Z,5.24
2017-03-12T06:44:00.784Z,5.28
2017-03-12T06:44:41.325Z,5.33
2017-03-12T06:45:21.848Z,5.33
2017-03-12T06:46:02.379Z,5.33
2017-03-12T06:46:42.914Z,5.33
2017-03-12T06:47:23.436Z,5.36
2017-03-12T06:48:03.975Z,5.4
2017-03-12T06:48:44.512Z,5.48
2017-03-12T06:49:25.041Z,5.48
2017-03-12T06:50:05.578Z,5.45
2017-03-12T06:50:46.094Z,5.57
2017-03-12T06:51:26.849Z,5.56
2017-03-12T06:52:08.473Z,5.56
2017-03-12T06:52:50.017Z,5.56
2017-03-12T06:53:30.723Z,5.61
2017-03-12T06:54:11.262Z,5.63
2017-03-12T06:54:51.795Z,5.63
2017-03-12T06:55:32.327Z,5.63
2017-03-12T06:56:12.891Z,5.6
2017-03-12T06:56:53.427Z,5.65
2017-03-12T06:57:33.978Z,5.68
2017-03-12T06:58:14.500Z,5.79
2017-03-12T06:58:55.040Z,5.74
2017-03-12T06:59:35.580Z,5.65
2017-03-12T07:00:16.118Z,5.76
2017-03-12T07:00:56.640Z,5.78
2017-03-12T07:01:37.173Z,5.81
2017-03-12T07:02:17.705Z,5.81
2017-03-12T07:02:58.239Z,5.81
2017-03-12T07:03:38.778Z,5.83
2017-03-12T07:04:19.323Z,5.83
2017-03-12T07:04:59.853Z,5.9
2017-03-12T07:05:40.697Z,5.91
2017-03-12T07:06:21.266Z,6.01
2017-03-12T07:07:01.805Z,6.01
2017-03-12T07:07:42.334Z,6
2017-03-12T07:08:22.866Z,6.06
2017-03-12T07:09:03.396Z,5.96
2017-03-12T07:09:43.927Z,6.08
2017-03-12T07:10:24.465Z,6.14
2017-03-12T07:11:05.003Z,6.14
2017-03-12T07:11:45.537Z,6.15
2017-03-12T07:12:26.069Z,6.18
2017-03-12T07:13:06.607Z,6.17
2017-03-12T07:13:47.141Z,6.21
2017-03-12T07:14:27.677Z,6.21
2017-03-12T07:15:08.212Z,6.28
2017-03-12T07:15:48.759Z,6.27
2017-03-12T07:16:29.296Z,6.3
2017-03-12T07:17:09.826Z,6.31
2017-03-12T07:17:50.360Z,6.3
2017-03-12T07:18:30.895Z,6.36
2017-03-12T07:19:11.465Z,6.38
2017-03-12T07:19:52.000Z,6.38
2017-03-12T07:20:32.542Z,6.43
2017-03-12T07:21:13.080Z,6.54
2017-03-12T07:21:53.620Z,6.58
2017-03-12T07:22:34.175Z,6.61
2017-03-12T07:23:14.700Z,6.61
2017-03-12T07:23:55.252Z,6.56
2017-03-12T07:24:35.783Z,6.56
2017-03-12T07:25:16.320Z,6.61
2017-03-12T07:25:56.855Z,6.59
2017-03-12T07:26:37.384Z,6.71
2017-03-12T07:27:17.918Z,6.77
2017-03-12T07:27:58.456Z,6.77
2017-03-12T07:28:38.987Z,6.77
2017-03-12T07:29:19.521Z,6.8
2017-03-12T07:30:01.174Z,6.74
2017-03-12T07:30:43.498Z,6.8
2017-03-12T07:31:26.090Z,6.87
2017-03-12T07:32:09.544Z,6.92
2017-03-12T07:33:59.056Z,6.98
2017-03-12T07:34:39.581Z,7.1
2017-03-12T07:35:20.110Z,7.06
2017-03-12T07:36:00.641Z,7.13
2017-03-12T07:36:41.183Z,7.15
2017-03-12T07:37:21.709Z,7.21
2017-03-12T07:38:02.246Z,7.13
2017-03-12T07:38:42.792Z,7.17
2017-03-12T07:39:23.325Z,7.3
2017-03-12T07:40:03.849Z,7.23
2017-03-12T07:40:44.403Z,7.21
2017-03-12T07:41:24.909Z,7.31
2017-03-12T07:42:05.443Z,7.17
2017-03-12T07:42:45.982Z,7.25
2017-03-12T07:43:26.505Z,7.28
2017-03-12T07:44:07.030Z,7.39
2017-03-12T07:44:47.559Z,7.48
2017-03-12T07:45:28.097Z,7.46
2017-03-12T07:46:08.627Z,7.48
2017-03-12T07:46:49.157Z,7.49
2017-03-12T07:47:29.692Z,7.5
2017-03-12T07:48:10.224Z,7.49
2017-03-12T07:48:50.760Z,7.52
2017-03-12T07:49:31.292Z,7.48
2017-03-12T07:50:11.823Z,7.52
2017-03-12T07:50:52.357Z,7.61
2017-03-12T07:51:32.888Z,7.64
2017-03-12T07:52:13.427Z,7.69
2017-03-12T07:52:53.976Z,7.64
2017-03-12T07:53:34.510Z,7.75
2017-03-12T07:54:15.044Z,7.74
2017-03-12T07:54:55.576Z,7.82
2017-03-12T07:55:36.104Z,7.83
2017-03-12T07:56:16.631Z,7.85
2017-03-12T07:56:57.167Z,7.72
2017-03-12T07:57:37.704Z,7.89
2017-03-12T07:58:18.240Z,7.95
2017-03-12T07:58:58.776Z,7.97
2017-03-12T07:59:39.308Z,7.95
2017-03-12T08:00:19.850Z,8
2017-03-12T08:01:00.372Z,7.97
2017-03-12T08:01:40.905Z,7.98
2017-03-12T08:02:21.437Z,8.04
2017-03-12T08:03:03.307Z,7.98
2017-03-12T08:04:59.374Z,8.11
2017-03-12T08:05:41.837Z,8.04
2017-03-12T08:06:25.077Z,8.11
2017-03-12T08:07:06.605Z,8.12
2017-03-12T08:07:50.353Z,8.1
2017-03-12T08:08:30.879Z,8.23
2017-03-12T08:09:11.416Z,8.15
2017-03-12T08:09:51.964Z,8.19
2017-03-12T08:10:32.501Z,8.25
2017-03-12T08:11:13.042Z,8.33
2017-03-12T08:11:53.577Z,8.28
2017-03-12T08:12:35.829Z,8.25
2017-03-12T08:13:19.285Z,8.28
2017-03-12T08:14:02.663Z,8.28
2017-03-12T08:14:46.108Z,8.44
2017-03-12T08:15:29.522Z,8.45
2017-03-12T08:16:12.596Z,8.55
2017-03-12T08:16:55.209Z,8.48
2017-03-12T08:17:37.286Z,8.65
2017-03-12T08:18:19.673Z,8.58
2017-03-12T08:19:03.310Z,8.76
2017-03-12T08:19:46.007Z,8.71
2017-03-12T08:20:28.043Z,8.73
2017-03-12T08:21:08.580Z,8.7
2017-03-12T08:21:49.108Z,8.8
2017-03-12T08:22:29.701Z,8.81
2017-03-12T08:23:11.245Z,8.81
2017-03-12T08:23:51.945Z,8.84
2017-03-12T08:24:32.480Z,8.87
2017-03-12T08:25:13.017Z,8.96
2017-03-12T08:25:53.574Z,8.86
2017-03-12T08:26:34.115Z,8.96
2017-03-12T08:27:14.647Z,9.08
2017-03-12T08:27:55.201Z,9.13
2017-03-12T08:28:35.724Z,9.21
2017-03-12T08:29:16.273Z,9.26
2017-03-12T08:29:56.818Z,9.21
2017-03-12T08:30:37.342Z,9.31
2017-03-12T08:31:17.893Z,9.33
2017-03-12T08:31:58.426Z,9.29
2017-03-12T08:32:38.970Z,9.4
2017-03-12T08:33:19.501Z,9.38
2017-03-12T08:34:00.035Z,9.42
2017-03-12T08:34:40.567Z,9.48
2017-03-12T08:35:21.094Z,9.5
2017-03-12T08:36:01.626Z,9.51
2017-03-12T08:36:42.162Z,9.51
2017-03-12T08:37:22.691Z,9.5
2017-03-12T08:38:03.225Z,9.53
2017-03-12T08:38:43.755Z,9.64
2017-03-12T08:39:24.277Z,9.68
2017-03-12T08:40:04.801Z,9.75
2017-03-12T08:40:45.353Z,9.75
2017-03-12T08:41:25.893Z,9.76
2017-03-12T08:42:06.420Z,9.71
2017-03-12T08:42:46.983Z,9.74
2017-03-12T08:43:27.511Z,9.76
2017-03-12T08:44:08.049Z,9.72
2017-03-12T08:44:48.577Z,9.83
2017-03-12T08:45:29.117Z,9.83
2017-03-12T08:46:09.644Z,9.78
2017-03-12T08:46:50.187Z,9.89
2017-03-12T08:47:30.724Z,9.94
2017-03-12T08:48:11.272Z,10.01
2017-03-12T08:48:51.803Z,10.02
2017-03-12T08:49:32.338Z,10.01
2017-03-12T08:50:12.870Z,10.08
2017-03-12T08:50:53.382Z,10.15
2017-03-12T08:51:33.935Z,10.22
2017-03-12T08:52:14.480Z,10.17
2017-03-12T08:52:55.012Z,10.25
2017-03-12T08:53:35.577Z,10.25
2017-03-12T08:54:16.112Z,10.27
2017-03-12T08:54:56.671Z,10.29
2017-03-12T08:55:37.157Z,10.27
2017-03-12T08:56:17.722Z,10.3
2017-03-12T08:56:58.254Z,10.33
2017-03-12T08:57:38.791Z,10.4
2017-03-12T08:58:19.332Z,10.38
2017-03-12T08:58:59.884Z,10.42
2017-03-12T08:59:40.397Z,10.42
2017-03-12T09:00:20.933Z,10.34
2017-03-12T09:01:01.467Z,10.42
2017-03-12T09:01:41.990Z,10.51
2017-03-12T09:02:22.536Z,10.59
2017-03-12T09:03:03.066Z,10.68
2017-03-12T09:03:43.599Z,10.82
2017-03-12T09:04:24.129Z,10.84
2017-03-12T09:05:04.667Z,10.92
2017-03-12T09:05:45.202Z,11
2017-03-12T09:06:25.739Z,11.24
2017-03-12T09:07:06.279Z,11.27
2017-03-12T09:07:46.818Z,11.37
2017-03-12T09:08:27.360Z,11.43
2017-03-12T09:09:07.903Z,11.43
2017-03-12T09:09:48.441Z,11.51
2017-03-12T09:10:28.994Z,11.64
2017-03-12T09:11:09.514Z,11.67
2017-03-12T09:11:50.043Z,11.83
2017-03-12T09:12:30.586Z,11.86
2017-03-12T09:13:11.123Z,11.96
2017-03-12T09:13:51.660Z,11.98
2017-03-12T09:14:32.205Z,11.99
2017-03-12T09:15:12.742Z,12.23
2017-03-12T09:15:53.290Z,12.32
2017-03-12T09:16:33.822Z,12.47
2017-03-12T09:17:14.362Z,12.62
2017-03-12T09:17:54.902Z,12.67
2017-03-12T09:18:35.438Z,12.6
2017-03-12T09:19:15.984Z,12.49
2017-03-12T09:19:56.512Z,12.37
2017-03-12T09:20:37.050Z,12.28
2017-03-12T09:21:17.597Z,12.34
2017-03-12T09:21:58.139Z,12.37
2017-03-12T09:22:38.668Z,12.39
2017-03-12T09:23:19.207Z,12.38
2017-03-12T09:23:59.745Z,12.31
2017-03-12T09:24:40.286Z,12.29
2017-03-12T09:25:20.832Z,12.41
2017-03-12T09:26:01.371Z,12.47
2017-03-12T09:26:41.911Z,12.54
2017-03-12T09:27:22.445Z,12.62
2017-03-12T09:28:02.978Z,12.57
2017-03-12T09:28:43.512Z,12.65
2017-03-12T09:29:24.059Z,12.65
2017-03-12T09:30:04.595Z,12.77
2017-03-12T09:30:45.147Z,12.68
2017-03-12T09:31:25.690Z,12.62
2017-03-12T09:32:06.227Z,12.65
2017-03-12T09:32:46.767Z,12.65
2017-03-12T09:33:27.311Z,12.71
2017-03-12T09:34:07.834Z,12.67